Time;durP1;ratioP1;P1;durP2;ratioP2;P2;SDS_P1;SDS_P2;PMS_P1;PMS_P2;Temp;Humidity;BMP_temperature;BMP_pressure;BME280_temperature;BME280_humidity;BME280_pressure;Samples;Min_cycle;Max_cycle;Signal;HPM_P1;HPM_P2
2022/07/04 00:00:24;;;;;;;;;;;18.60;99.90;;;;;;5071062;28;19959;-76
2022/07/04 00:02:50;;;;;;;;;;;18.50;99.90;;;;;;5069311;28;19909;-76
2022/07/04 00:05:17;;;;;;;;;;;18.30;99.90;;;;;;5070408;28;19954;-75
2022/07/04 00:07:46;;;;;;;;;;;18.20;99.90;;;;;;5071194;28;19919;-76
2022/07/04 00:10:12;;;;;;;;;;;18.40;99.90;;;;;;5070271;28;19908;-75
2022/07/04 00:12:38;;;;;;;;;;;18.70;99.90;;;;;;5069727;28;19916;-75
2022/07/04 00:15:04;;;;;;;;;;;18.60;99.90;;;;;;5069145;28;19942;-75
2022/07/04 00:17:30;;;;;;;;;;;18.50;99.90;;;;;;5071185;28;19908;-76
2022/07/04 00:19:56;;;;;;;;;;;18.60;99.90;;;;;;5070848;28;20277;-76
2022/07/04 00:22:21;;;;;;;;;;;18.70;99.90;;;;;;5070618;28;19913;-75
2022/07/04 00:24:47;;;;;;;;;;;18.80;99.90;;;;;;5070354;28;19991;-76
2022/07/04 00:27:12;;;;;;;;;;;18.70;99.90;;;;;;5071087;28;19908;-76
2022/07/04 00:29:38;;;;;;;;;;;18.60;99.90;;;;;;5070775;28;19912;-75
2022/07/04 00:32:03;;;;;;;;;;;18.70;99.90;;;;;;5070373;28;19908;-76
2022/07/04 00:34:29;;;;;;;;;;;18.70;99.90;;;;;;5070101;28;19908;-75
2022/07/04 00:36:54;;;;;;;;;;;18.70;99.90;;;;;;5071064;28;20461;-76
2022/07/04 00:39:20;;;;;;;;;;;18.70;99.90;;;;;;5070849;28;19959;-76
2022/07/04 00:41:46;;;;;;;;;;;18.90;99.90;;;;;;5070513;28;19909;-76
2022/07/04 00:44:12;;;;;;;;;;;19.00;99.90;;;;;;5069137;28;19916;-75
2022/07/04 00:46:38;;;;;;;;;;;19.00;99.90;;;;;;5070429;28;20391;-76
2022/07/04 00:49:04;;;;;;;;;;;18.90;99.90;;;;;;5070716;28;19995;-76
2022/07/04 00:51:30;;;;;;;;;;;19.00;99.90;;;;;;5069092;28;19916;-75
2022/07/04 00:53:55;;;;;;;;;;;18.90;99.90;;;;;;5070077;28;19912;-76
2022/07/04 00:56:21;;;;;;;;;;;18.80;99.90;;;;;;5070660;28;20392;-76
2022/07/04 00:58:47;;;;;;;;;;;18.70;99.90;;;;;;5070677;28;19909;-76
2022/07/04 01:01:12;;;;;;;;;;;18.60;99.90;;;;;;5070379;28;20357;-76
2022/07/04 01:03:38;;;;;;;;;;;18.70;99.90;;;;;;5069530;28;20181;-76
2022/07/04 01:06:04;;;;;;;;;;;18.70;99.90;;;;;;5063629;28;19952;-76
2022/07/04 01:08:29;;;;;;;;;;;18.70;99.90;;;;;;5070570;28;19915;-76
2022/07/04 01:10:55;;;;;;;;;;;18.50;99.90;;;;;;5070560;28;19958;-76
2022/07/04 01:13:21;;;;;;;;;;;18.60;99.90;;;;;;5068011;28;19912;-75
2022/07/04 01:15:47;;;;;;;;;;;18.50;99.90;;;;;;5070301;28;19913;-75
2022/07/04 01:18:12;;;;;;;;;;;18.50;99.90;;;;;;5070411;28;19909;-76
2022/07/04 01:20:38;;;;;;;;;;;18.40;99.90;;;;;;5070900;28;19909;-75
2022/07/04 01:23:04;;;;;;;;;;;18.60;99.90;;;;;;5073242;28;19966;-76
2022/07/04 01:25:30;;;;;;;;;;;18.60;99.90;;;;;;5073405;28;19940;-76
2022/07/04 01:27:55;;;;;;;;;;;18.50;99.90;;;;;;5072726;28;19908;-75
2022/07/04 01:30:21;;;;;;;;;;;18.30;99.90;;;;;;5073608;28;19913;-75
2022/07/04 01:32:46;;;;;;;;;;;18.40;99.90;;;;;;5073466;28;19920;-75
2022/07/04 01:35:12;;;;;;;;;;;18.40;99.90;;;;;;5069389;28;19935;-76
2022/07/04 01:37:38;;;;;;;;;;;18.40;99.90;;;;;;5074342;28;19995;-75
2022/07/04 01:40:04;;;;;;;;;;;18.40;99.90;;;;;;5073599;28;19916;-75
2022/07/04 01:42:30;;;;;;;;;;;18.50;99.90;;;;;;5073243;28;19912;-75
2022/07/04 01:44:55;;;;;;;;;;;18.50;99.90;;;;;;5073333;28;20261;-75
2022/07/04 01:47:21;;;;;;;;;;;18.50;99.90;;;;;;5073391;28;19961;-75
2022/07/04 01:49:46;;;;;;;;;;;18.40;99.90;;;;;;5072342;28;20265;-76
2022/07/04 01:52:13;;;;;;;;;;;18.30;99.90;;;;;;5072843;28;20288;-75
2022/07/04 01:54:38;;;;;;;;;;;18.20;99.90;;;;;;5071683;28;20323;-76
2022/07/04 01:57:04;;;;;;;;;;;18.10;99.90;;;;;;5072100;28;19958;-75
2022/07/04 02:02:21;;;;;;;;;;;18.10;99.90;;;;;;5056611;28;19962;-75
2022/07/04 02:04:46;;;;;;;;;;;18.10;99.90;;;;;;5071224;28;20314;-75
2022/07/04 02:07:12;;;;;;;;;;;18.20;99.90;;;;;;5072772;28;19915;-75
2022/07/04 02:09:37;;;;;;;;;;;18.20;99.90;;;;;;5073261;28;19921;-75
2022/07/04 02:14:47;;;;;;;;;;;18.10;99.90;;;;;;5072687;28;19993;-76
2022/07/04 02:17:13;;;;;;;;;;;18.00;99.90;;;;;;5072658;28;19908;-75
2022/07/04 02:19:38;;;;;;;;;;;17.90;99.90;;;;;;5072942;28;20270;-76
2022/07/04 02:22:04;;;;;;;;;;;17.90;99.90;;;;;;5072421;28;20003;-75
2022/07/04 02:24:29;;;;;;;;;;;18.00;99.90;;;;;;5072242;28;19916;-76
2022/07/04 02:26:55;;;;;;;;;;;17.70;99.90;;;;;;5072700;28;19955;-76
2022/07/04 02:29:20;;;;;;;;;;;17.60;99.90;;;;;;5072821;28;19958;-75
2022/07/04 02:31:46;;;;;;;;;;;17.50;99.90;;;;;;5071937;28;19909;-75
2022/07/04 02:34:11;;;;;;;;;;;17.50;99.90;;;;;;5069799;28;20465;-76
2022/07/04 02:36:37;;;;;;;;;;;17.40;99.90;;;;;;5068383;28;19962;-75
2022/07/04 02:39:04;;;;;;;;;;;17.40;99.90;;;;;;5072403;28;19908;-75
2022/07/04 02:41:30;;;;;;;;;;;17.40;99.90;;;;;;5072232;28;19909;-75
2022/07/04 02:43:56;;;;;;;;;;;17.20;99.90;;;;;;5071831;28;19909;-75
2022/07/04 02:46:22;;;;;;;;;;;17.30;99.90;;;;;;5072090;28;20292;-75
2022/07/04 02:48:48;;;;;;;;;;;17.30;99.90;;;;;;5072444;28;19916;-75
2022/07/04 02:51:13;;;;;;;;;;;17.40;99.90;;;;;;5071872;28;20258;-76
2022/07/04 02:53:39;;;;;;;;;;;17.30;99.90;;;;;;5071627;28;19942;-75
2022/07/04 02:56:04;;;;;;;;;;;17.20;99.90;;;;;;5072177;28;19909;-76
2022/07/04 02:58:30;;;;;;;;;;;17.10;99.90;;;;;;5072175;28;20003;-76
2022/07/04 03:00:56;;;;;;;;;;;17.00;99.90;;;;;;5072047;28;19908;-75
2022/07/04 03:03:21;;;;;;;;;;;16.90;99.90;;;;;;5070883;28;19909;-76
2022/07/04 03:05:47;;;;;;;;;;;16.80;99.90;;;;;;5066935;28;20003;-75
2022/07/04 03:08:12;;;;;;;;;;;16.80;99.90;;;;;;5071728;28;19915;-75
2022/07/04 03:10:38;;;;;;;;;;;16.90;99.90;;;;;;5071601;28;19919;-75
2022/07/04 03:13:03;;;;;;;;;;;16.90;99.90;;;;;;5071231;28;19935;-75
2022/07/04 03:15:29;;;;;;;;;;;17.00;99.90;;;;;;5071030;28;19991;-76
2022/07/04 03:17:54;;;;;;;;;;;16.90;99.90;;;;;;5071872;28;19995;-76
2022/07/04 03:20:20;;;;;;;;;;;16.80;99.90;;;;;;5071542;28;20293;-76
2022/07/04 03:22:45;;;;;;;;;;;16.80;99.90;;;;;;5071163;28;19916;-76
2022/07/04 03:25:11;;;;;;;;;;;16.80;99.90;;;;;;5071043;28;19912;-76
2022/07/04 03:27:36;;;;;;;;;;;16.70;99.90;;;;;;5071618;28;19916;-75
2022/07/04 03:30:02;;;;;;;;;;;16.60;99.90;;;;;;5071724;28;20374;-74
2022/07/04 03:32:27;;;;;;;;;;;16.60;99.90;;;;;;5070908;28;20442;-75
2022/07/04 03:34:53;;;;;;;;;;;16.60;99.90;;;;;;5070700;28;19947;-75
2022/07/04 03:37:18;;;;;;;;;;;16.50;99.90;;;;;;5071208;28;20312;-75
2022/07/04 03:39:44;;;;;;;;;;;16.60;99.90;;;;;;5071458;28;19913;-74
2022/07/04 03:42:09;;;;;;;;;;;16.50;99.90;;;;;;5070842;28;20344;-75
2022/07/04 03:44:35;;;;;;;;;;;16.40;99.90;;;;;;5070468;28;19919;-75
2022/07/04 03:47:01;;;;;;;;;;;16.40;99.90;;;;;;5074550;28;20281;-75
2022/07/04 03:49:26;;;;;;;;;;;16.40;99.90;;;;;;5077894;28;19943;-76
2022/07/04 03:51:51;;;;;;;;;;;16.60;99.90;;;;;;5073177;28;19999;-75
2022/07/04 03:54:17;;;;;;;;;;;16.50;99.90;;;;;;5070346;28;19966;-75
2022/07/04 03:56:43;;;;;;;;;;;16.40;99.90;;;;;;5071187;28;19916;-75
2022/07/04 03:59:08;;;;;;;;;;;16.40;99.90;;;;;;5071394;28;19934;-75
2022/07/04 04:01:33;;;;;;;;;;;16.40;99.90;;;;;;5069202;28;19912;-75
2022/07/04 04:06:43;;;;;;;;;;;16.30;99.90;;;;;;5067661;28;20320;-75
2022/07/04 04:09:16;;;;;;;;;;;16.30;99.90;;;;;;5067673;28;20003;-75
2022/07/04 04:11:42;;;;;;;;;;;16.30;99.90;;;;;;5070678;28;19952;-75
2022/07/04 04:14:07;;;;;;;;;;;16.30;99.90;;;;;;5068959;28;19919;-75
2022/07/04 04:16:33;;;;;;;;;;;16.30;99.90;;;;;;5070711;28;20362;-75
2022/07/04 04:18:58;;;;;;;;;;;16.40;99.90;;;;;;5069929;28;20282;-75
2022/07/04 04:21:24;;;;;;;;;;;16.40;99.90;;;;;;5069337;28;19916;-75
2022/07/04 04:23:49;;;;;;;;;;;16.40;99.90;;;;;;5069937;28;19994;-75
2022/07/04 04:26:15;;;;;;;;;;;16.40;99.90;;;;;;5069412;28;19978;-75
2022/07/04 04:28:40;;;;;;;;;;;16.40;99.90;;;;;;5071009;28;19912;-75
2022/07/04 04:31:05;;;;;;;;;;;16.40;99.90;;;;;;5069405;28;20082;-75
2022/07/04 04:33:31;;;;;;;;;;;16.50;99.90;;;;;;5068597;28;19913;-75
2022/07/04 04:35:56;;;;;;;;;;;16.60;99.90;;;;;;5070899;28;19912;-75
2022/07/04 04:38:22;;;;;;;;;;;16.70;99.90;;;;;;5069511;28;19913;-75
2022/07/04 04:40:48;;;;;;;;;;;16.70;99.90;;;;;;5070929;28;19912;-75
2022/07/04 04:43:13;;;;;;;;;;;16.70;99.90;;;;;;5069685;28;19908;-75
2022/07/04 04:45:39;;;;;;;;;;;16.70;99.90;;;;;;5069443;28;19966;-75
2022/07/04 04:48:05;;;;;;;;;;;16.70;99.90;;;;;;5070953;28;19916;-75
2022/07/04 04:50:31;;;;;;;;;;;16.80;99.90;;;;;;5070571;28;19908;-75
2022/07/04 04:52:57;;;;;;;;;;;16.90;99.90;;;;;;5070012;28;19912;-75
2022/07/04 04:55:22;;;;;;;;;;;16.90;99.90;;;;;;5070052;28;19916;-74
2022/07/04 04:57:48;;;;;;;;;;;16.90;99.90;;;;;;5074536;28;19913;-74
2022/07/04 05:00:14;;;;;;;;;;;17.00;99.90;;;;;;5074610;28;19952;-75
2022/07/04 05:02:39;;;;;;;;;;;17.00;99.90;;;;;;5073461;28;19909;-76
2022/07/04 05:05:06;;;;;;;;;;;17.00;99.90;;;;;;5073180;28;19908;-75
2022/07/04 05:07:31;;;;;;;;;;;17.00;99.90;;;;;;5072366;28;20384;-75
2022/07/04 05:09:58;;;;;;;;;;;17.00;99.90;;;;;;5074172;28;19912;-75
2022/07/04 05:12:25;;;;;;;;;;;16.90;99.90;;;;;;5073838;28;20316;-75
2022/07/04 05:14:50;;;;;;;;;;;16.90;99.90;;;;;;5073509;28;19940;-75
2022/07/04 05:17:16;;;;;;;;;;;16.80;99.90;;;;;;5073688;28;20459;-75
2022/07/04 05:19:41;;;;;;;;;;;16.70;99.90;;;;;;5074254;28;19914;-75
2022/07/04 05:22:07;;;;;;;;;;;16.70;99.90;;;;;;5070967;28;19916;-75
2022/07/04 05:24:32;;;;;;;;;;;16.80;99.90;;;;;;5070976;28;20316;-75
2022/07/04 05:26:58;;;;;;;;;;;16.90;99.90;;;;;;5079423;28;19912;-75
2022/07/04 05:29:23;;;;;;;;;;;16.90;99.90;;;;;;5072490;28;20361;-75
2022/07/04 05:31:49;;;;;;;;;;;17.00;99.90;;;;;;5073200;28;19909;-75
2022/07/04 05:34:14;;;;;;;;;;;17.10;99.90;;;;;;5071665;28;19912;-76
2022/07/04 05:36:40;;;;;;;;;;;17.20;99.90;;;;;;5069340;28;20007;-76
2022/07/04 05:39:05;;;;;;;;;;;17.30;99.90;;;;;;5073693;28;20049;-77
2022/07/04 05:41:31;;;;;;;;;;;17.40;99.90;;;;;;5073748;28;19912;-75
2022/07/04 05:43:56;;;;;;;;;;;17.40;99.90;;;;;;5073739;28;19917;-75
2022/07/04 05:46:21;;;;;;;;;;;17.60;99.90;;;;;;5072329;28;19913;-75
2022/07/04 05:48:47;;;;;;;;;;;17.70;99.90;;;;;;5073744;28;20411;-76
2022/07/04 05:51:12;;;;;;;;;;;17.80;99.90;;;;;;5073388;28;19909;-76
2022/07/04 05:53:38;;;;;;;;;;;18.00;99.90;;;;;;5071392;28;20281;-75
2022/07/04 05:56:03;;;;;;;;;;;18.00;99.90;;;;;;5073217;28;19934;-75
2022/07/04 05:58:29;;;;;;;;;;;18.20;99.90;;;;;;5067124;28;19942;-76
2022/07/04 06:00:55;;;;;;;;;;;18.40;99.90;;;;;;5073499;28;19913;-75
2022/07/04 06:03:20;;;;;;;;;;;18.40;99.90;;;;;;5072469;28;20277;-75
2022/07/04 06:05:46;;;;;;;;;;;18.20;99.90;;;;;;5072781;28;19951;-75
2022/07/04 06:08:11;;;;;;;;;;;18.20;99.90;;;;;;5073459;28;19939;-75
2022/07/04 06:10:37;;;;;;;;;;;18.20;99.90;;;;;;5073413;28;19909;-75
2022/07/04 06:13:02;;;;;;;;;;;18.20;99.90;;;;;;5073189;28;20350;-75
2022/07/04 06:15:28;;;;;;;;;;;18.30;99.90;;;;;;5073048;28;19912;-75
2022/07/04 06:17:54;;;;;;;;;;;18.30;99.90;;;;;;5073150;28;19909;-75
2022/07/04 06:20:19;;;;;;;;;;;18.40;99.90;;;;;;5071916;28;19909;-75
2022/07/04 06:22:46;;;;;;;;;;;18.70;99.90;;;;;;5072636;28;19962;-76
2022/07/04 06:25:15;;;;;;;;;;;18.80;99.90;;;;;;5072855;28;19912;-76
2022/07/04 06:27:41;;;;;;;;;;;19.10;99.90;;;;;;5073078;28;20319;-75
2022/07/04 06:30:07;;;;;;;;;;;19.10;99.90;;;;;;5072999;28;19962;-75
2022/07/04 06:32:46;;;;;;;;;;;19.20;99.90;;;;;;5071867;28;19916;-75
2022/07/04 06:37:56;;;;;;;;;;;19.80;99.90;;;;;;5071650;28;19934;-76
2022/07/04 06:40:22;;;;;;;;;;;19.90;99.90;;;;;;5073436;28;19909;-75
2022/07/04 06:42:49;;;;;;;;;;;20.10;99.90;;;;;;5072985;28;19912;-75
2022/07/04 06:45:14;;;;;;;;;;;20.20;99.90;;;;;;5073359;28;19909;-75
2022/07/04 06:47:40;;;;;;;;;;;20.20;99.90;;;;;;5072693;28;20003;-75
2022/07/04 06:50:05;;;;;;;;;;;20.20;99.90;;;;;;5073058;28;19908;-76
2022/07/04 06:52:31;;;;;;;;;;;20.10;99.90;;;;;;5069647;28;19920;-76
2022/07/04 06:54:56;;;;;;;;;;;20.10;99.90;;;;;;5072426;28;19909;-75
2022/07/04 06:57:22;;;;;;;;;;;20.10;99.90;;;;;;5072752;28;19916;-76
2022/07/04 06:59:47;;;;;;;;;;;19.90;99.90;;;;;;5072851;28;19912;-75
2022/07/04 07:02:13;;;;;;;;;;;19.80;99.90;;;;;;5072165;28;19908;-76
2022/07/04 07:04:40;;;;;;;;;;;19.80;99.90;;;;;;5068447;28;20403;-75
2022/07/04 07:07:06;;;;;;;;;;;20.10;99.90;;;;;;5071928;28;20289;-75
2022/07/04 07:09:31;;;;;;;;;;;20.10;99.90;;;;;;5072526;28;19915;-75
2022/07/04 07:11:57;;;;;;;;;;;20.20;99.90;;;;;;5072506;28;19912;-75
2022/07/04 07:14:22;;;;;;;;;;;20.30;99.90;;;;;;5071853;28;19956;-76
2022/07/04 07:16:48;;;;;;;;;;;20.80;99.90;;;;;;5072564;28;19916;-76
2022/07/04 07:19:13;;;;;;;;;;;20.80;99.90;;;;;;5071886;28;20289;-75
2022/07/04 07:21:39;;;;;;;;;;;20.90;99.90;;;;;;5071922;28;19908;-76
2022/07/04 07:24:04;;;;;;;;;;;21.10;99.90;;;;;;5071471;28;19917;-75
2022/07/04 07:26:30;;;;;;;;;;;21.50;99.90;;;;;;5072059;28;20431;-76
2022/07/04 07:28:55;;;;;;;;;;;21.40;99.90;;;;;;5072006;28;20369;-76
2022/07/04 07:31:21;;;;;;;;;;;21.60;99.90;;;;;;5071422;28;19942;-76
2022/07/04 07:33:46;;;;;;;;;;;21.20;99.90;;;;;;5071523;28;19928;-75
2022/07/04 07:36:12;;;;;;;;;;;21.60;99.90;;;;;;5071751;28;19908;-76
2022/07/04 07:38:37;;;;;;;;;;;21.50;99.90;;;;;;5072054;28;19919;-76
2022/07/04 07:41:06;;;;;;;;;;;21.50;99.90;;;;;;5072059;28;19951;-76
2022/07/04 07:43:32;;;;;;;;;;;21.40;99.90;;;;;;5071277;28;19909;-76
2022/07/04 07:45:57;;;;;;;;;;;21.60;99.90;;;;;;5066326;28;20405;-76
2022/07/04 07:48:23;;;;;;;;;;;21.60;99.90;;;;;;5071956;28;19955;-76
2022/07/04 07:50:48;;;;;;;;;;;21.90;99.90;;;;;;5071849;28;19965;-76
2022/07/04 07:53:14;;;;;;;;;;;21.80;99.90;;;;;;5069625;28;20308;-75
2022/07/04 07:55:39;;;;;;;;;;;21.80;99.90;;;;;;5071712;28;19909;-76
2022/07/04 07:58:05;;;;;;;;;;;21.80;99.90;;;;;;5071611;28;20011;-76
2022/07/04 08:00:30;;;;;;;;;;;21.80;99.90;;;;;;5071856;28;19908;-76
2022/07/04 08:05:40;;;;;;;;;;;22.40;99.90;;;;;;5067580;28;19958;-75
2022/07/04 08:08:07;;;;;;;;;;;22.70;99.90;;;;;;5072519;28;19909;-75
2022/07/04 08:10:32;;;;;;;;;;;22.40;99.90;;;;;;5071743;28;19908;-75
2022/07/04 08:12:58;;;;;;;;;;;22.60;99.90;;;;;;5070820;28;20019;-76
2022/07/04 08:15:24;;;;;;;;;;;22.60;99.90;;;;;;5070407;28;19908;-76
2022/07/04 08:17:50;;;;;;;;;;;22.00;99.90;;;;;;5069838;28;20316;-75
2022/07/04 08:20:16;;;;;;;;;;;22.10;99.90;;;;;;5071568;28;19908;-76
2022/07/04 08:22:41;;;;;;;;;;;21.70;99.60;;;;;;5071201;28;19915;-76
2022/07/04 08:25:07;;;;;;;;;;;21.40;99.90;;;;;;5069779;28;20422;-76
2022/07/04 08:27:32;;;;;;;;;;;21.40;99.90;;;;;;5069966;28;19919;-76
2022/07/04 08:29:58;;;;;;;;;;;21.20;99.90;;;;;;5071962;28;19912;-76
2022/07/04 08:32:24;;;;;;;;;;;21.20;99.90;;;;;;5074646;28;19915;-75
2022/07/04 08:34:49;;;;;;;;;;;21.30;99.90;;;;;;5075402;28;19995;-76
2022/07/04 08:37:15;;;;;;;;;;;21.50;99.90;;;;;;5074207;28;19909;-76
2022/07/04 08:39:40;;;;;;;;;;;21.90;99.90;;;;;;5075512;28;19915;-75
2022/07/04 08:42:09;;;;;;;;;;;22.40;99.90;;;;;;5074797;28;19923;-75
2022/07/04 08:44:38;;;;;;;;;;;22.40;99.90;;;;;;5069994;28;19912;-76
2022/07/04 08:47:05;;;;;;;;;;;22.80;99.90;;;;;;5081304;28;20387;-75
2022/07/04 08:49:31;;;;;;;;;;;22.90;99.00;;;;;;5075570;28;19912;-75
2022/07/04 08:52:00;;;;;;;;;;;22.70;99.10;;;;;;5073449;28;19909;-75
2022/07/04 08:59:55;;;;;;;;;;;22.60;99.20;;;;;;5075149;28;19931;-75
2022/07/04 09:02:21;;;;;;;;;;;23.40;99.90;;;;;;5074543;28;19962;-75
2022/07/04 09:04:48;;;;;;;;;;;23.50;99.50;;;;;;5074022;28;20380;-75
2022/07/04 09:07:14;;;;;;;;;;;24.10;99.90;;;;;;5074816;28;19912;-75
2022/07/04 09:09:40;;;;;;;;;;;24.30;99.90;;;;;;5073622;28;19908;-75
2022/07/04 09:12:06;;;;;;;;;;;24.40;98.50;;;;;;5074350;28;19953;-76
2022/07/04 09:14:32;;;;;;;;;;;25.20;96.40;;;;;;5073086;28;20335;-76
2022/07/04 09:16:59;;;;;;;;;;;25.70;97.20;;;;;;5074928;28;19999;-76
2022/07/04 09:19:25;;;;;;;;;;;26.10;92.50;;;;;;5074399;28;19919;-76
2022/07/04 09:21:50;;;;;;;;;;;26.10;95.10;;;;;;5074088;28;19919;-76
2022/07/04 09:24:16;;;;;;;;;;;26.40;94.10;;;;;;5073165;28;19923;-76
2022/07/04 09:26:45;;;;;;;;;;;27.00;94.50;;;;;;5071756;28;19931;-76
2022/07/04 09:29:10;;;;;;;;;;;28.00;92.30;;;;;;5072986;28;19999;-76
2022/07/04 09:31:36;;;;;;;;;;;26.20;93.70;;;;;;5072800;28;19953;-76
2022/07/04 09:34:05;;;;;;;;;;;28.20;95.40;;;;;;5071278;28;19912;-76
2022/07/04 09:36:38;;;;;;;;;;;28.60;90.20;;;;;;5073002;28;19908;-76
2022/07/04 09:39:21;;;;;;;;;;;27.90;91.10;;;;;;5071830;28;19909;-76
2022/07/04 09:41:54;;;;;;;;;;;28.20;90.60;;;;;;5072184;28;19915;-76
2022/07/04 09:44:20;;;;;;;;;;;27.80;88.30;;;;;;5072109;28;19915;-76
2022/07/04 09:46:46;;;;;;;;;;;27.80;92.10;;;;;;5072456;28;19909;-76
2022/07/04 09:49:11;;;;;;;;;;;27.30;93.30;;;;;;5071616;28;19915;-76
2022/07/04 09:51:37;;;;;;;;;;;28.50;90.40;;;;;;5072355;28;20254;-76
2022/07/04 09:54:12;;;;;;;;;;;28.10;89.50;;;;;;5072515;28;20358;-76
2022/07/04 09:56:45;;;;;;;;;;;27.60;91.90;;;;;;5072649;28;19915;-76
2022/07/04 09:59:10;;;;;;;;;;;29.00;85.40;;;;;;5072264;28;19948;-76
2022/07/04 10:01:36;;;;;;;;;;;28.50;88.10;;;;;;5072298;28;19944;-76
2022/07/04 10:04:03;;;;;;;;;;;29.20;87.40;;;;;;5072206;28;19909;-76
2022/07/04 10:06:31;;;;;;;;;;;29.60;87.20;;;;;;5072584;28;19965;-76
2022/07/04 10:09:05;;;;;;;;;;;29.60;83.60;;;;;;5072700;28;20341;-76
2022/07/04 10:11:34;;;;;;;;;;;28.80;79.70;;;;;;5072249;28;19913;-76
2022/07/04 10:14:01;;;;;;;;;;;26.30;83.80;;;;;;5067897;28;19966;-76
2022/07/04 10:16:27;;;;;;;;;;;29.00;79.80;;;;;;5079354;28;20003;-76
2022/07/04 10:18:54;;;;;;;;;;;29.80;87.10;;;;;;5072558;28;20003;-76
2022/07/04 10:21:19;;;;;;;;;;;28.90;80.70;;;;;;5072435;28;19934;-76
2022/07/04 10:23:45;;;;;;;;;;;27.10;84.50;;;;;;5008361;28;1820177;-76
2022/07/04 10:26:11;;;;;;;;;;;29.00;85.30;;;;;;5073068;28;19930;-76
2022/07/04 10:28:38;;;;;;;;;;;27.60;83.70;;;;;;5073207;28;19916;-77
2022/07/04 10:31:04;;;;;;;;;;;28.20;76.40;;;;;;5073334;28;19915;-76
2022/07/04 10:33:30;;;;;;;;;;;27.90;82.90;;;;;;5072608;28;19912;-77
2022/07/04 10:35:56;;;;;;;;;;;29.20;80.60;;;;;;5064183;28;19919;-77
2022/07/04 10:38:25;;;;;;;;;;;29.90;80.30;;;;;;5073368;28;19908;-76
2022/07/04 10:40:59;;;;;;;;;;;29.80;81.70;;;;;;5072135;28;19985;-76
2022/07/04 10:43:31;;;;;;;;;;;29.50;80.50;;;;;;5059283;28;19960;-77
2022/07/04 10:46:19;;;;;;;;;;;29.70;77.40;;;;;;5079652;28;20274;-77
2022/07/04 10:48:52;;;;;;;;;;;28.50;78.90;;;;;;5075925;28;19962;-76
2022/07/04 10:51:37;;;;;;;;;;;28.30;81.00;;;;;;5072539;28;20041;-77
2022/07/04 10:54:04;;;;;;;;;;;29.00;79.90;;;;;;5071643;28;19938;-76
2022/07/04 10:56:30;;;;;;;;;;;29.70;80.20;;;;;;5066305;28;20254;-77
2022/07/04 10:58:57;;;;;;;;;;;28.70;78.60;;;;;;5072362;28;19908;-76
2022/07/04 11:01:23;;;;;;;;;;;27.90;80.50;;;;;;5071083;28;19915;-76
2022/07/04 11:03:49;;;;;;;;;;;27.30;77.90;;;;;;5072303;28;19916;-76
2022/07/04 11:06:33;;;;;;;;;;;27.90;81.80;;;;;;5072601;28;19908;-77
2022/07/04 11:09:16;;;;;;;;;;;29.20;73.40;;;;;;5060979;28;19918;-77
2022/07/04 11:11:55;;;;;;;;;;;29.30;74.50;;;;;;5072208;28;19909;-77
2022/07/04 11:14:38;;;;;;;;;;;28.50;74.80;;;;;;5073189;28;19913;-77
2022/07/04 11:17:15;;;;;;;;;;;28.30;75.00;;;;;;5071404;28;19908;-77
2022/07/04 11:19:41;;;;;;;;;;;28.60;79.60;;;;;;5072382;28;19984;-77
2022/07/04 11:22:08;;;;;;;;;;;28.70;79.50;;;;;;5071792;28;20381;-77
2022/07/04 11:24:34;;;;;;;;;;;29.30;79.00;;;;;;5071531;28;19923;-77
2022/07/04 11:27:00;;;;;;;;;;;29.40;79.10;;;;;;5072052;28;20263;-77
2022/07/04 11:29:26;;;;;;;;;;;28.70;74.40;;;;;;5071774;28;20326;-76
2022/07/04 11:31:52;;;;;;;;;;;29.50;78.60;;;;;;5071671;28;19955;-77
2022/07/04 11:34:18;;;;;;;;;;;30.00;79.00;;;;;;5070273;28;19912;-77
2022/07/04 11:36:45;;;;;;;;;;;30.00;76.20;;;;;;5071911;28;19908;-77
2022/07/04 11:39:19;;;;;;;;;;;30.00;76.90;;;;;;5071836;28;20389;-77
2022/07/04 11:47:23;;;;;;;;;;;30.60;71.70;;;;;;5064903;28;20006;-77
2022/07/04 11:49:51;;;;;;;;;;;30.30;72.10;;;;;;5070483;28;19915;-77
2022/07/04 11:52:18;;;;;;;;;;;30.90;75.60;;;;;;5071444;28;19908;-76
2022/07/04 11:54:44;;;;;;;;;;;30.80;76.90;;;;;;5071200;28;19955;-76
2022/07/04 11:57:11;;;;;;;;;;;30.80;77.00;;;;;;5071702;28;19915;-77
2022/07/04 11:59:37;;;;;;;;;;;30.80;71.20;;;;;;5071592;28;19947;-76
2022/07/04 12:02:12;;;;;;;;;;;30.20;70.20;;;;;;5071431;28;19909;-77
2022/07/04 12:04:38;;;;;;;;;;;30.60;71.20;;;;;;5071178;28;19908;-76
2022/07/04 12:07:11;;;;;;;;;;;29.00;72.40;;;;;;5071569;28;19916;-76
2022/07/04 12:09:36;;;;;;;;;;;28.40;73.30;;;;;;5071573;28;19908;-77
2022/07/04 12:12:02;;;;;;;;;;;28.70;76.60;;;;;;5071388;28;19954;-76
2022/07/04 12:14:28;;;;;;;;;;;28.80;74.40;;;;;;5061318;28;19917;-77
2022/07/04 12:17:12;;;;;;;;;;;28.60;74.90;;;;;;5071454;28;19931;-77
2022/07/04 12:19:37;;;;;;;;;;;29.10;77.90;;;;;;5077153;28;20046;-76
2022/07/04 12:22:03;;;;;;;;;;;28.80;75.10;;;;;;5071690;28;19963;-76
2022/07/04 12:24:38;;;;;;;;;;;28.60;78.20;;;;;;5071134;28;20402;-76
2022/07/04 12:27:03;;;;;;;;;;;29.70;72.50;;;;;;5071060;28;20046;-76
2022/07/04 12:29:29;;;;;;;;;;;29.80;71.30;;;;;;5071415;28;20003;-76
2022/07/04 12:31:54;;;;;;;;;;;30.50;70.70;;;;;;5071192;28;20006;-76
2022/07/04 12:34:20;;;;;;;;;;;32.30;71.30;;;;;;5070840;28;20365;-76
2022/07/04 12:36:53;;;;;;;;;;;33.80;68.40;;;;;;5071328;28;19908;-76
2022/07/04 12:39:27;;;;;;;;;;;31.30;66.60;;;;;;5071434;28;19913;-76
2022/07/04 12:42:16;;;;;;;;;;;32.50;63.80;;;;;;5071031;28;19916;-76
2022/07/04 12:44:43;;;;;;;;;;;32.30;65.10;;;;;;5057009;28;20007;-76
2022/07/04 12:47:09;;;;;;;;;;;29.40;69.40;;;;;;5074720;28;19913;-76
2022/07/04 12:49:35;;;;;;;;;;;29.20;71.00;;;;;;5071334;28;19909;-76
2022/07/04 12:52:09;;;;;;;;;;;28.00;71.90;;;;;;5069483;28;19908;-76
2022/07/04 12:54:35;;;;;;;;;;;28.80;72.20;;;;;;5070734;28;20007;-76
2022/07/04 12:57:07;;;;;;;;;;;30.70;70.80;;;;;;5071402;28;19909;-76
2022/07/04 12:59:33;;;;;;;;;;;31.20;66.20;;;;;;5070978;28;19908;-76
2022/07/04 13:01:58;;;;;;;;;;;32.50;63.60;;;;;;5069525;28;20288;-76
2022/07/04 13:04:24;;;;;;;;;;;29.50;68.70;;;;;;5070745;28;19955;-76
2022/07/04 13:06:50;;;;;;;;;;;27.30;74.60;;;;;;5071040;28;20373;-76
2022/07/04 13:09:15;;;;;;;;;;;27.40;79.60;;;;;;5071381;28;20239;-76
2022/07/04 13:14:25;;;;;;;;;;;31.50;65.70;;;;;;5070170;28;19934;-76
2022/07/04 13:16:50;;;;;;;;;;;33.50;62.10;;;;;;5077703;28;19908;-76
2022/07/04 13:19:19;;;;;;;;;;;34.20;57.70;;;;;;5073388;28;19912;-76
2022/07/04 13:21:45;;;;;;;;;;;33.90;59.30;;;;;;5074433;28;20500;-76
2022/07/04 13:24:10;;;;;;;;;;;34.30;58.70;;;;;;5073941;28;19959;-76
2022/07/04 13:26:37;;;;;;;;;;;35.70;54.90;;;;;;5074601;28;19948;-76
2022/07/04 13:29:03;;;;;;;;;;;34.00;56.90;;;;;;5074512;28;20380;-76
2022/07/04 13:31:28;;;;;;;;;;;34.10;60.50;;;;;;5072393;28;19913;-76
2022/07/04 13:33:54;;;;;;;;;;;34.80;56.20;;;;;;5073874;28;20376;-76
2022/07/04 13:36:20;;;;;;;;;;;33.40;60.20;;;;;;5074314;28;20309;-76
2022/07/04 13:38:45;;;;;;;;;;;34.60;59.00;;;;;;5072274;28;20308;-76
2022/07/04 13:41:10;;;;;;;;;;;33.00;58.40;;;;;;5067339;28;19955;-77
2022/07/04 13:43:36;;;;;;;;;;;34.00;54.90;;;;;;5071285;28;19912;-76
2022/07/04 13:46:03;;;;;;;;;;;30.90;62.90;;;;;;5078327;28;19909;-76
2022/07/04 13:48:28;;;;;;;;;;;32.40;63.10;;;;;;5074550;28;19956;-76
2022/07/04 13:50:54;;;;;;;;;;;29.10;66.00;;;;;;5073962;28;19994;-76
2022/07/04 13:53:20;;;;;;;;;;;31.60;63.30;;;;;;5072776;28;19912;-76
2022/07/04 13:55:45;;;;;;;;;;;30.10;62.50;;;;;;5067228;28;19947;-76
2022/07/04 13:58:11;;;;;;;;;;;28.70;65.50;;;;;;5073837;28;20312;-76
2022/07/04 14:00:37;;;;;;;;;;;30.80;61.40;;;;;;5073545;28;19921;-76
2022/07/04 14:03:03;;;;;;;;;;;30.40;67.00;;;;;;5073336;28;20034;-76
2022/07/04 14:05:29;;;;;;;;;;;30.00;66.00;;;;;;5073392;28;20286;-76
2022/07/04 14:07:55;;;;;;;;;;;28.40;67.40;;;;;;5073748;28;20007;-76
2022/07/04 14:10:20;;;;;;;;;;;26.80;71.80;;;;;;5073596;28;19991;-76
2022/07/04 14:12:46;;;;;;;;;;;26.40;73.90;;;;;;5073100;28;20311;-76
2022/07/04 14:15:12;;;;;;;;;;;26.10;75.00;;;;;;5072922;28;19909;-76
2022/07/04 14:17:37;;;;;;;;;;;25.80;75.00;;;;;;5073665;28;19966;-76
2022/07/04 14:20:03;;;;;;;;;;;27.70;73.70;;;;;;5073503;28;19908;-76
2022/07/04 14:22:29;;;;;;;;;;;28.60;70.20;;;;;;5073075;28;19912;-76
2022/07/04 14:24:54;;;;;;;;;;;27.80;71.50;;;;;;5073117;28;19931;-76
2022/07/04 14:27:20;;;;;;;;;;;28.40;70.40;;;;;;5073293;28;19999;-76
2022/07/04 14:29:45;;;;;;;;;;;28.10;69.00;;;;;;5071984;28;19961;-76
2022/07/04 14:32:11;;;;;;;;;;;27.10;75.00;;;;;;5073397;28;20007;-76
2022/07/04 14:34:36;;;;;;;;;;;29.30;68.90;;;;;;5072847;28;19970;-77
2022/07/04 14:37:02;;;;;;;;;;;31.90;64.90;;;;;;5073180;28;19912;-76
2022/07/04 14:39:27;;;;;;;;;;;33.10;62.50;;;;;;5071371;28;20049;-76